createdAt,value
2019-03-27T00:00:58.234Z,3.07
2019-03-27T00:03:28.410Z,2.40
2019-03-27T00:05:58.735Z,3.30
2019-03-27T00:08:28.924Z,2.57
2019-03-27T00:10:59.106Z,2.63
2019-03-27T00:13:29.294Z,2.50
2019-03-27T00:15:59.555Z,2.47
2019-03-27T00:18:29.828Z,3.00
2019-03-27T00:21:00.125Z,2.50
2019-03-27T00:23:30.518Z,3.17
2019-03-27T00:26:00.739Z,2.90
2019-03-27T00:28:31.098Z,3.60
2019-03-27T00:31:01.361Z,6.30
2019-03-27T00:33:31.656Z,6.47
2019-03-27T00:36:01.694Z,6.03
2019-03-27T00:38:31.958Z,6.90
2019-03-27T00:41:02.210Z,4.67
2019-03-27T00:43:32.445Z,5.80
2019-03-27T00:46:02.788Z,5.80
2019-03-27T00:48:33.166Z,5.53
2019-03-27T00:51:03.214Z,5.27
2019-03-27T00:53:33.536Z,4.47
2019-03-27T00:56:03.688Z,4.63
2019-03-27T00:58:33.944Z,4.37
2019-03-27T01:01:11.876Z,3.70
2019-03-27T01:03:42.057Z,4.50
2019-03-27T01:06:12.359Z,6.33
2019-03-27T01:08:42.624Z,5.03
2019-03-27T01:11:12.790Z,3.00
2019-03-27T01:13:43.055Z,3.80
2019-03-27T01:16:13.326Z,4.20
2019-03-27T01:18:43.587Z,5.13
2019-03-27T01:21:13.673Z,4.07
2019-03-27T01:23:43.942Z,4.30
2019-03-27T01:26:13.986Z,4.90
2019-03-27T01:28:44.218Z,4.50
2019-03-27T01:31:14.460Z,5.00
2019-03-27T01:33:44.715Z,4.97
2019-03-27T01:36:15.015Z,3.87
2019-03-27T01:38:45.291Z,4.33
2019-03-27T01:41:15.465Z,4.63
2019-03-27T01:43:45.646Z,4.30
2019-03-27T01:46:15.831Z,4.63
2019-03-27T01:48:46.183Z,4.50
2019-03-27T01:51:16.223Z,4.57
2019-03-27T01:53:46.541Z,4.30
2019-03-27T01:56:16.659Z,4.37
2019-03-27T01:58:46.766Z,4.20
2019-03-27T02:01:16.833Z,5.30
2019-03-27T02:03:46.968Z,5.30
2019-03-27T02:06:17.153Z,4.20
2019-03-27T02:08:47.257Z,5.60
2019-03-27T02:11:17.495Z,4.93
2019-03-27T02:13:47.727Z,4.37
2019-03-27T02:16:17.899Z,3.97
2019-03-27T02:18:47.974Z,4.77
2019-03-27T02:21:18.162Z,5.43
2019-03-27T02:23:48.195Z,4.47
2019-03-27T02:26:18.366Z,4.83
2019-03-27T02:28:48.830Z,5.70
2019-03-27T02:31:19.034Z,4.70
2019-03-27T02:33:49.389Z,5.20
2019-03-27T02:36:19.672Z,5.47
2019-03-27T02:38:49.942Z,5.20
2019-03-27T02:41:20.029Z,4.83
2019-03-27T02:43:50.211Z,4.20
2019-03-27T02:46:25.076Z,5.20
2019-03-27T02:48:52.394Z,6.57
2019-03-27T02:51:22.560Z,4.53
2019-03-27T02:53:52.818Z,5.00
2019-03-27T02:56:23.006Z,6.40
2019-03-27T02:58:53.056Z,6.37
2019-03-27T03:01:23.343Z,5.13
2019-03-27T03:03:53.524Z,7.17
2019-03-27T03:06:23.657Z,6.37
2019-03-27T03:08:53.653Z,5.40
2019-03-27T03:11:24.008Z,6.23
2019-03-27T03:13:54.160Z,5.87
2019-03-27T03:16:40.874Z,5.53
2019-03-27T03:18:56.076Z,6.40
2019-03-27T03:21:26.354Z,7.00
2019-03-27T03:23:56.520Z,6.37
2019-03-27T03:26:26.876Z,6.10
2019-03-27T03:28:56.967Z,6.63
2019-03-27T03:31:27.225Z,6.83
2019-03-27T03:33:57.393Z,5.30
2019-03-27T03:36:27.655Z,5.60
2019-03-27T03:38:57.757Z,6.37
2019-03-27T03:41:27.922Z,6.40
2019-03-27T03:43:58.070Z,6.57
2019-03-27T03:46:28.380Z,6.00
2019-03-27T03:48:58.577Z,5.40
2019-03-27T03:51:28.815Z,5.40
2019-03-27T03:53:59.063Z,5.80
2019-03-27T03:56:29.229Z,5.33
2019-03-27T03:58:59.599Z,5.80
2019-03-27T04:01:29.641Z,7.80
2019-03-27T04:03:59.831Z,4.80
2019-03-27T04:06:30.091Z,6.10
2019-03-27T04:09:00.459Z,5.87
2019-03-27T04:11:30.642Z,5.80
2019-03-27T04:14:00.841Z,6.07
2019-03-27T04:16:30.944Z,7.30
2019-03-27T04:19:01.156Z,6.13
2019-03-27T04:21:31.226Z,6.97
2019-03-27T04:24:01.376Z,6.67
2019-03-27T04:26:33.514Z,5.40
2019-03-27T04:29:03.475Z,6.40
2019-03-27T04:31:33.535Z,6.77
2019-03-27T04:34:03.716Z,7.13
2019-03-27T04:36:33.763Z,6.43
2019-03-27T04:39:04.933Z,7.00
2019-03-27T04:41:35.067Z,7.80
2019-03-27T04:44:05.147Z,5.90
2019-03-27T04:46:35.291Z,5.50
2019-03-27T04:49:07.685Z,7.10
2019-03-27T04:51:37.419Z,5.43
2019-03-27T04:54:09.253Z,5.40
2019-03-27T04:56:39.453Z,7.37
2019-03-27T04:59:09.693Z,6.70
2019-03-27T05:01:39.796Z,7.03
2019-03-27T05:04:10.150Z,9.60
2019-03-27T05:06:40.213Z,6.63
2019-03-27T05:09:10.508Z,7.50
2019-03-27T05:11:40.692Z,8.23
2019-03-27T05:14:10.948Z,7.37
2019-03-27T05:16:41.026Z,8.03
2019-03-27T05:19:11.287Z,8.20
2019-03-27T05:21:41.488Z,9.80
2019-03-27T05:24:11.624Z,9.23
2019-03-27T05:26:41.679Z,9.57
2019-03-27T05:29:11.764Z,9.27
2019-03-27T05:31:41.855Z,9.47
2019-03-27T05:34:12.221Z,10.20
2019-03-27T05:36:42.514Z,9.97
2019-03-27T05:39:14.559Z,10.53
2019-03-27T05:41:44.581Z,10.50
2019-03-27T05:44:14.739Z,7.97
2019-03-27T05:46:44.826Z,10.37
2019-03-27T05:49:15.004Z,9.80
2019-03-27T05:51:45.263Z,8.90
2019-03-27T05:54:15.424Z,8.57
2019-03-27T05:56:45.590Z,7.53
2019-03-27T05:59:15.871Z,8.93
2019-03-27T06:01:46.142Z,7.13
2019-03-27T06:04:16.427Z,4.70
2019-03-27T06:06:46.675Z,6.30
2019-03-27T06:09:16.866Z,4.80
2019-03-27T06:11:47.255Z,6.20
2019-03-27T06:14:17.399Z,6.10
2019-03-27T06:16:47.570Z,6.07
2019-03-27T06:19:17.742Z,6.20
2019-03-27T06:21:47.796Z,7.37
2019-03-27T06:24:17.995Z,6.90
2019-03-27T06:26:48.347Z,6.47
2019-03-27T06:29:18.718Z,6.67
2019-03-27T06:31:49.055Z,7.07
2019-03-27T06:34:19.449Z,8.37
2019-03-27T06:36:49.564Z,7.17
2019-03-27T06:39:19.717Z,5.87
2019-03-27T06:41:49.788Z,9.90
2019-03-27T06:44:19.986Z,7.93
2019-03-27T06:46:50.166Z,8.63
2019-03-27T06:49:20.296Z,7.77
2019-03-27T06:51:50.505Z,7.93
2019-03-27T06:54:20.772Z,6.40
2019-03-27T06:56:50.932Z,6.23
2019-03-27T06:59:21.059Z,7.43
2019-03-27T07:01:51.244Z,7.27
2019-03-27T07:04:21.394Z,7.97
2019-03-27T07:06:51.669Z,6.40
2019-03-27T07:09:21.807Z,9.50
2019-03-27T07:11:52.215Z,7.17
2019-03-27T07:14:22.564Z,7.90
2019-03-27T07:16:53.502Z,8.30
2019-03-27T07:19:23.733Z,6.67
2019-03-27T07:21:53.846Z,8.33
2019-03-27T07:24:24.048Z,7.67
2019-03-27T07:26:54.184Z,9.00
2019-03-27T07:29:24.538Z,8.70
2019-03-27T07:31:54.963Z,7.70
2019-03-27T07:34:25.100Z,8.63
2019-03-27T07:36:56.306Z,9.20
2019-03-27T07:39:26.460Z,9.23
2019-03-27T07:41:56.649Z,8.90
2019-03-27T07:44:26.891Z,9.43
2019-03-27T07:46:57.212Z,10.27
2019-03-27T07:49:27.235Z,10.43
2019-03-27T07:51:57.548Z,9.60
2019-03-27T07:54:27.940Z,9.07
2019-03-27T07:56:58.045Z,9.70
2019-03-27T07:59:29.181Z,9.80
2019-03-27T08:01:59.836Z,10.30
2019-03-27T08:04:30.029Z,10.60
2019-03-27T08:07:00.184Z,9.03
2019-03-27T08:09:30.422Z,9.43
2019-03-27T08:12:19.383Z,11.83
2019-03-27T08:14:49.532Z,11.17
2019-03-27T08:17:19.786Z,11.20
2019-03-27T08:19:49.976Z,10.73
2019-03-27T08:22:20.130Z,11.47
2019-03-27T08:24:50.236Z,11.37
2019-03-27T08:27:20.624Z,10.40
2019-03-27T08:29:50.875Z,11.73
2019-03-27T08:32:21.023Z,10.43
2019-03-27T08:34:51.104Z,9.70
2019-03-27T08:37:21.274Z,9.00
2019-03-27T08:39:51.557Z,10.67
2019-03-27T08:42:21.714Z,11.93
2019-03-27T08:44:51.795Z,9.90
2019-03-27T08:47:22.058Z,12.10
2019-03-27T08:49:52.122Z,11.27
2019-03-27T08:52:22.387Z,10.30
2019-03-27T08:54:52.508Z,10.23
2019-03-27T08:57:22.778Z,11.37
2019-03-27T08:59:52.919Z,10.50
2019-03-27T09:02:23.145Z,7.90
2019-03-27T09:04:53.404Z,7.87
2019-03-27T09:07:23.701Z,11.43
2019-03-27T09:09:53.770Z,8.63
2019-03-27T09:12:23.833Z,7.80
2019-03-27T09:14:53.991Z,7.43
2019-03-27T09:17:24.053Z,7.53
2019-03-27T09:19:54.239Z,7.80
2019-03-27T09:22:24.435Z,7.83
2019-03-27T09:24:54.688Z,8.67
2019-03-27T09:27:24.724Z,7.17
2019-03-27T09:29:55.025Z,6.87
2019-03-27T09:32:25.099Z,7.50
2019-03-27T09:34:55.348Z,7.80
2019-03-27T09:37:25.423Z,8.00
2019-03-27T09:39:55.621Z,6.60
2019-03-27T09:42:25.692Z,7.60
2019-03-27T09:44:55.844Z,6.43
2019-03-27T09:47:26.014Z,6.33
2019-03-27T09:49:56.305Z,6.87
2019-03-27T09:52:26.468Z,6.70
2019-03-27T09:54:56.738Z,7.33
2019-03-27T09:57:26.812Z,8.00
2019-03-27T09:59:56.977Z,7.03
2019-03-27T10:02:27.033Z,7.10
2019-03-27T10:04:57.302Z,7.70
2019-03-27T10:07:27.455Z,7.40
2019-03-27T10:09:57.574Z,6.70
2019-03-27T10:12:27.735Z,6.93
2019-03-27T10:14:57.906Z,6.63
2019-03-27T10:17:28.062Z,7.10
2019-03-27T10:20:03.497Z,5.47
2019-03-27T10:22:30.508Z,5.47
2019-03-27T10:25:00.705Z,6.67
2019-03-27T10:27:30.816Z,5.40
2019-03-27T10:30:01.197Z,5.97
2019-03-27T10:32:31.227Z,5.30
2019-03-27T10:35:01.427Z,5.90
2019-03-27T10:37:31.600Z,5.30
2019-03-27T10:40:01.657Z,3.23
2019-03-27T10:42:31.865Z,3.20
2019-03-27T10:45:02.014Z,3.57
2019-03-27T10:47:32.184Z,3.63
2019-03-27T10:50:11.961Z,3.87
2019-03-27T10:52:34.344Z,3.40
2019-03-27T10:55:04.608Z,3.27
2019-03-27T10:57:34.976Z,4.50
2019-03-27T11:00:05.633Z,3.90
2019-03-27T11:02:35.564Z,2.90
2019-03-27T11:05:05.917Z,3.60
2019-03-27T11:07:36.140Z,3.97
2019-03-27T11:10:06.672Z,3.50
2019-03-27T11:12:37.576Z,4.40
2019-03-27T11:15:07.864Z,4.53
2019-03-27T11:17:38.119Z,4.27
2019-03-27T11:20:09.354Z,5.00
2019-03-27T11:22:39.492Z,3.40
2019-03-27T11:25:09.978Z,3.87
2019-03-27T11:27:39.949Z,3.40
2019-03-27T11:30:09.935Z,4.17
2019-03-27T11:32:39.835Z,4.00
2019-03-27T11:35:09.757Z,2.23
2019-03-27T11:37:39.720Z,3.53
2019-03-27T11:40:10.139Z,3.60
2019-03-27T11:42:40.089Z,3.83
2019-03-27T11:45:10.024Z,3.97
2019-03-27T11:47:40.001Z,3.67
2019-03-27T11:50:10.377Z,3.60
2019-03-27T11:52:40.367Z,5.60
2019-03-27T11:55:10.273Z,4.03
2019-03-27T11:57:40.234Z,3.67
2019-03-27T12:00:10.543Z,2.90
2019-03-27T12:02:40.533Z,3.90
2019-03-27T12:05:10.490Z,4.23
2019-03-27T12:07:40.436Z,4.47
2019-03-27T12:10:11.019Z,4.20
2019-03-27T12:13:04.764Z,4.73
2019-03-27T12:15:41.963Z,3.73
2019-03-27T12:18:13.159Z,4.90
2019-03-27T12:20:43.431Z,3.70
2019-03-27T12:23:13.392Z,4.30
2019-03-27T12:25:43.561Z,5.77
2019-03-27T12:28:13.509Z,3.83
2019-03-27T12:30:43.450Z,3.60
2019-03-27T12:33:13.412Z,4.80
2019-03-27T12:35:43.350Z,4.10
2019-03-27T12:38:13.336Z,4.40
2019-03-27T12:40:43.229Z,3.80
2019-03-27T12:43:13.238Z,5.20
2019-03-27T12:45:43.156Z,3.43
2019-03-27T12:48:13.127Z,5.23
2019-03-27T12:50:44.530Z,4.50
2019-03-27T12:53:14.656Z,5.23
2019-03-27T12:55:44.583Z,4.90
2019-03-27T12:58:14.602Z,4.63
2019-03-27T13:00:44.524Z,4.30
2019-03-27T13:03:14.503Z,5.27
2019-03-27T13:05:44.419Z,4.30
2019-03-27T13:08:15.554Z,4.90
2019-03-27T13:10:45.526Z,4.43
2019-03-27T13:13:15.516Z,5.30
2019-03-27T13:15:45.430Z,5.97
2019-03-27T13:18:15.413Z,5.90
2019-03-27T13:20:45.537Z,4.67
2019-03-27T13:23:15.647Z,3.93
2019-03-27T13:25:45.607Z,5.77
2019-03-27T13:28:15.568Z,5.27
2019-03-27T13:30:45.526Z,5.00
2019-03-27T13:33:15.474Z,4.67
2019-03-27T13:35:45.484Z,5.07
2019-03-27T13:38:15.450Z,5.97
2019-03-27T13:40:45.391Z,5.03
2019-03-27T13:43:15.351Z,5.67
2019-03-27T13:45:45.297Z,4.70
2019-03-27T13:48:15.233Z,4.83
2019-03-27T13:50:45.208Z,6.10
2019-03-27T13:53:15.130Z,6.10
2019-03-27T13:55:45.093Z,6.00
2019-03-27T13:58:15.017Z,5.60
2019-03-27T14:00:44.983Z,6.30
2019-03-27T14:03:14.904Z,6.63
2019-03-27T14:05:44.895Z,6.87
2019-03-27T14:08:14.807Z,6.57
2019-03-27T14:10:44.786Z,6.57
2019-03-27T14:13:14.707Z,6.10
2019-03-27T14:15:44.711Z,6.87
2019-03-27T14:18:14.633Z,6.03
2019-03-27T14:20:44.604Z,5.60
2019-03-27T14:23:14.522Z,5.90
2019-03-27T14:25:44.494Z,6.60
2019-03-27T14:28:14.401Z,7.77
2019-03-27T14:30:54.700Z,6.97
2019-03-27T14:33:24.624Z,6.80
2019-03-27T14:35:54.555Z,6.27
2019-03-27T14:38:24.495Z,8.00
2019-03-27T14:40:54.458Z,8.07
2019-03-27T14:43:26.967Z,7.97
2019-03-27T14:45:56.143Z,7.67
2019-03-27T14:48:26.075Z,7.30
2019-03-27T14:50:56.044Z,8.27
2019-03-27T14:53:25.968Z,8.70
2019-03-27T14:55:55.970Z,8.40
2019-03-27T14:58:25.938Z,7.60
2019-03-27T15:00:55.907Z,7.73
2019-03-27T15:03:25.826Z,7.90
2019-03-27T15:05:55.833Z,8.40
2019-03-27T15:08:25.757Z,7.60
2019-03-27T15:10:55.704Z,8.13
2019-03-27T15:13:25.653Z,7.50
2019-03-27T15:15:55.634Z,8.60
2019-03-27T15:18:25.565Z,8.87
2019-03-27T15:20:55.551Z,8.93
2019-03-27T15:23:25.462Z,8.30
2019-03-27T15:25:55.447Z,8.23
2019-03-27T15:28:25.411Z,7.60
2019-03-27T15:30:55.466Z,8.27
2019-03-27T15:33:25.419Z,7.10
2019-03-27T15:35:55.414Z,7.50
2019-03-27T15:38:25.343Z,8.93
2019-03-27T15:40:55.306Z,6.37
2019-03-27T15:43:25.236Z,8.37
2019-03-27T15:45:55.243Z,8.80
2019-03-27T15:48:25.175Z,8.40
2019-03-27T15:50:58.759Z,8.33
2019-03-27T15:53:26.801Z,9.10
2019-03-27T15:55:56.835Z,8.47
2019-03-27T15:58:26.759Z,7.50
2019-03-27T16:00:56.765Z,7.70
2019-03-27T16:03:26.748Z,8.53
2019-03-27T16:05:56.711Z,10.77
2019-03-27T16:08:26.644Z,8.80
2019-03-27T16:10:56.624Z,8.23
2019-03-27T16:13:26.555Z,8.27
2019-03-27T16:15:56.576Z,8.87
2019-03-27T16:18:26.520Z,8.63
2019-03-27T16:20:56.507Z,8.53
2019-03-27T16:23:26.495Z,7.60
2019-03-27T16:25:56.453Z,8.50
2019-03-27T16:28:26.382Z,9.37
2019-03-27T16:30:56.344Z,8.90
2019-03-27T16:33:26.270Z,7.40
2019-03-27T16:35:56.235Z,9.30
2019-03-27T16:38:26.155Z,7.37
2019-03-27T16:40:56.135Z,7.67
2019-03-27T16:43:26.115Z,9.20
2019-03-27T16:45:56.070Z,9.37
2019-03-27T16:48:26.041Z,9.03
2019-03-27T16:50:56.016Z,8.67
2019-03-27T16:53:25.942Z,9.80
2019-03-27T16:55:56.004Z,8.10
2019-03-27T16:58:25.890Z,8.47
2019-03-27T17:00:55.806Z,7.37
2019-03-27T17:03:25.780Z,8.83
2019-03-27T17:05:55.715Z,7.90
2019-03-27T17:08:25.683Z,7.37
2019-03-27T17:10:55.685Z,7.37
2019-03-27T17:13:25.663Z,7.73
2019-03-27T17:15:57.733Z,7.27
2019-03-27T17:18:28.452Z,7.97
2019-03-27T17:20:59.003Z,11.37
2019-03-27T17:23:28.975Z,14.60
2019-03-27T17:25:59.619Z,12.80
2019-03-27T17:28:29.913Z,12.10
2019-03-27T17:30:59.976Z,9.83
2019-03-27T17:33:30.193Z,8.73
2019-03-27T17:36:01.051Z,13.00
2019-03-27T17:38:31.170Z,15.87
2019-03-27T17:41:01.585Z,22.03
2019-03-27T17:43:31.831Z,22.40
2019-03-27T17:46:01.951Z,20.90
2019-03-27T17:48:32.194Z,19.33
2019-03-27T17:51:02.239Z,16.43
2019-03-27T17:53:32.415Z,13.57
2019-03-27T17:56:02.511Z,12.93
2019-03-27T17:58:32.660Z,9.40
2019-03-27T18:01:04.655Z,9.87
2019-03-27T18:03:35.510Z,9.70
2019-03-27T18:06:07.174Z,9.63
2019-03-27T18:08:39.675Z,10.40
2019-03-27T18:11:11.247Z,9.70
2019-03-27T18:13:41.588Z,10.93
2019-03-27T18:16:11.999Z,7.77
2019-03-27T18:18:42.126Z,8.70
2019-03-27T18:21:12.451Z,9.07
2019-03-27T18:23:46.383Z,7.77
2019-03-27T18:26:15.263Z,8.50
2019-03-27T18:28:45.963Z,10.37
2019-03-27T18:31:16.230Z,8.80
2019-03-27T18:33:46.425Z,9.37
2019-03-27T18:36:16.680Z,8.30
2019-03-27T18:38:46.768Z,7.90
2019-03-27T18:41:16.737Z,7.60
2019-03-27T18:43:46.922Z,8.53
2019-03-27T18:46:16.939Z,8.93
2019-03-27T18:48:47.313Z,7.70
2019-03-27T18:51:17.312Z,9.00
2019-03-27T18:53:59.027Z,7.67
2019-03-27T18:56:19.229Z,7.93
2019-03-27T18:58:49.283Z,8.00
2019-03-27T19:01:19.242Z,8.60
2019-03-27T19:03:49.290Z,8.50
2019-03-27T19:06:19.331Z,8.87
2019-03-27T19:08:49.330Z,8.47
2019-03-27T19:11:19.375Z,8.63
2019-03-27T19:13:49.384Z,8.20
2019-03-27T19:16:19.695Z,8.50
2019-03-27T19:18:49.743Z,8.73
2019-03-27T19:21:19.824Z,8.10
2019-03-27T19:23:49.929Z,9.20
2019-03-27T19:26:20.086Z,8.33
2019-03-27T19:28:50.049Z,8.63
2019-03-27T19:31:20.153Z,9.30
2019-03-27T19:33:50.172Z,10.73
2019-03-27T19:36:20.259Z,9.40
2019-03-27T19:38:50.582Z,9.57
2019-03-27T19:41:20.705Z,10.10
2019-03-27T19:43:50.982Z,10.27
2019-03-27T19:46:21.058Z,9.97
2019-03-27T19:48:51.113Z,9.03
2019-03-27T19:51:21.268Z,9.73
2019-03-27T19:53:51.452Z,9.30
2019-03-27T19:56:21.528Z,9.30
2019-03-27T19:58:51.575Z,9.43
2019-03-27T20:01:21.646Z,10.80
2019-03-27T20:03:51.798Z,10.63
2019-03-27T20:06:21.800Z,9.83
2019-03-27T20:08:51.790Z,9.93
2019-03-27T20:11:22.005Z,8.43
2019-03-27T20:13:52.096Z,9.43
2019-03-27T20:16:22.264Z,10.63
2019-03-27T20:18:52.355Z,9.93
2019-03-27T20:21:24.599Z,10.10
2019-03-27T20:23:54.802Z,10.57
2019-03-27T20:26:24.785Z,8.47
2019-03-27T20:28:54.825Z,10.73
2019-03-27T20:31:25.165Z,9.80
2019-03-27T20:33:55.165Z,10.60
2019-03-27T20:36:25.189Z,9.50
2019-03-27T20:38:55.112Z,8.83
2019-03-27T20:41:25.454Z,11.00
2019-03-27T20:43:55.555Z,10.67
2019-03-27T20:46:29.122Z,8.67
2019-03-27T20:48:57.524Z,10.13
2019-03-27T20:51:27.548Z,10.93
2019-03-27T20:54:01.167Z,11.40
2019-03-27T20:56:29.896Z,10.30
2019-03-27T20:59:01.506Z,9.10
2019-03-27T21:01:31.760Z,9.60
2019-03-27T21:04:02.262Z,11.40
2019-03-27T21:06:32.465Z,11.97
2019-03-27T21:09:03.454Z,9.10
2019-03-27T21:11:34.038Z,10.70
2019-03-27T21:14:04.046Z,10.50
2019-03-27T21:16:34.113Z,13.00
2019-03-27T21:19:04.300Z,13.30
2019-03-27T21:21:34.322Z,21.50
2019-03-27T21:24:04.523Z,16.07
2019-03-27T21:26:34.485Z,11.00
2019-03-27T21:29:05.041Z,10.57
2019-03-27T21:31:35.123Z,9.80
2019-03-27T21:34:05.185Z,10.27
2019-03-27T21:36:35.160Z,9.63
2019-03-27T21:39:06.552Z,12.40
2019-03-27T21:41:36.639Z,10.33
2019-03-27T21:44:06.712Z,10.27
2019-03-27T21:46:36.675Z,11.27
2019-03-27T21:49:06.827Z,10.70
2019-03-27T21:51:36.796Z,11.60
2019-03-27T21:54:06.770Z,10.90
2019-03-27T21:56:36.765Z,11.53
2019-03-27T21:59:06.790Z,12.30
2019-03-27T22:01:36.944Z,11.70
2019-03-27T22:04:07.011Z,11.80
2019-03-27T22:06:37.011Z,13.17
2019-03-27T22:09:08.220Z,10.30
2019-03-27T22:11:38.188Z,10.33
2019-03-27T22:14:08.209Z,9.27
2019-03-27T22:16:38.198Z,10.37
2019-03-27T22:19:08.267Z,12.67
2019-03-27T22:21:38.442Z,12.07
2019-03-27T22:24:08.509Z,9.20
2019-03-27T22:26:38.476Z,11.00
2019-03-27T22:29:08.541Z,11.00
2019-03-27T22:31:38.525Z,11.20
2019-03-27T22:34:08.594Z,11.00
2019-03-27T22:36:38.563Z,9.17
2019-03-27T22:39:09.963Z,10.27
2019-03-27T22:41:39.905Z,9.10
2019-03-27T22:44:09.836Z,9.93
2019-03-27T22:46:39.913Z,11.07
2019-03-27T22:49:09.869Z,8.87
2019-03-27T22:51:40.050Z,10.87
2019-03-27T22:54:10.068Z,9.60
2019-03-27T22:56:40.191Z,20.77
2019-03-27T22:59:10.139Z,14.57
2019-03-27T23:01:45.241Z,12.33
2019-03-27T23:04:15.270Z,17.67
2019-03-27T23:06:45.258Z,14.43
2019-03-27T23:09:15.265Z,12.33
2019-03-27T23:11:45.314Z,12.30
2019-03-27T23:14:15.254Z,12.80
2019-03-27T23:16:45.334Z,11.80
2019-03-27T23:19:15.369Z,10.90
2019-03-27T23:21:45.481Z,11.43
2019-03-27T23:24:15.537Z,11.37
2019-03-27T23:26:45.595Z,11.20
2019-03-27T23:29:15.857Z,9.90
2019-03-27T23:31:46.508Z,10.60
2019-03-27T23:34:17.330Z,11.20
2019-03-27T23:36:48.061Z,11.50
2019-03-27T23:39:18.497Z,11.17
2019-03-27T23:41:49.033Z,10.60
2019-03-27T23:44:19.749Z,12.67
2019-03-27T23:46:50.269Z,11.80
2019-03-27T23:49:20.824Z,10.10
2019-03-27T23:51:51.312Z,13.00
2019-03-27T23:54:22.103Z,12.27
2019-03-27T23:56:52.340Z,11.33
2019-03-27T23:59:22.383Z,10.70
